createdAt,value
2022-09-15T00:18:40.072Z,12.60
2022-09-15T00:21:21.109Z,14.30
2022-09-15T00:39:54.995Z,13.60
2022-09-15T00:42:24.339Z,14.37
2022-09-15T00:44:56.212Z,12.97
2022-09-15T00:47:28.486Z,12.77
2022-09-15T00:50:02.293Z,13.23
2022-09-15T00:52:38.588Z,13.33
2022-09-15T00:55:13.922Z,14.53
2022-09-15T00:57:47.522Z,12.23
2022-09-15T01:03:03.146Z,12.40
2022-09-15T01:05:36.886Z,13.07
2022-09-15T01:08:10.603Z,11.63
2022-09-15T01:10:41.919Z,11.17
2022-09-15T01:13:13.128Z,12.17
2022-09-15T01:15:55.790Z,11.10
2022-09-15T01:18:36.150Z,12.77
2022-09-15T01:21:22.955Z,13.47
2022-09-15T01:24:17.705Z,12.67
2022-09-15T01:26:59.566Z,12.10
2022-09-15T01:29:55.015Z,11.60
2022-09-15T01:32:46.081Z,11.67
2022-09-15T01:35:23.596Z,11.70
2022-09-15T01:37:56.751Z,11.03
2022-09-15T01:40:28.747Z,11.17
2022-09-15T01:42:57.753Z,10.40
2022-09-15T01:45:31.629Z,10.60
2022-09-15T01:48:02.556Z,10.40
2022-09-15T01:50:48.122Z,10.33
2022-09-15T01:53:19.067Z,10.40
2022-09-15T01:55:53.462Z,10.40
2022-09-15T01:58:22.080Z,9.23
2022-09-15T02:00:56.644Z,9.60
2022-09-15T02:03:33.673Z,12.07
2022-09-15T02:06:07.621Z,12.30
2022-09-15T02:08:45.263Z,14.80
2022-09-15T02:11:17.304Z,15.47
2022-09-15T02:13:57.777Z,16.93
2022-09-15T02:16:31.261Z,12.33
2022-09-15T02:19:11.195Z,14.80
2022-09-15T02:21:55.038Z,11.33
2022-09-15T02:24:29.838Z,12.17
2022-09-15T02:26:59.545Z,12.83
2022-09-15T02:29:29.269Z,10.40
2022-09-15T02:32:06.865Z,11.20
2022-09-15T02:34:38.384Z,10.47
2022-09-15T02:37:07.648Z,12.60
2022-09-15T02:39:39.909Z,9.30
2022-09-15T02:42:08.645Z,9.70
2022-09-15T02:44:37.090Z,11.73
2022-09-15T02:47:07.126Z,12.57
2022-09-15T02:49:35.414Z,9.97
2022-09-15T02:52:04.401Z,13.07
2022-09-15T02:54:32.810Z,11.47
2022-09-15T02:57:01.166Z,9.53
2022-09-15T02:59:50.585Z,14.27
2022-09-15T03:02:20.812Z,12.70
2022-09-15T03:04:49.776Z,12.57
2022-09-15T03:07:18.697Z,13.53
2022-09-15T03:09:47.265Z,11.10
2022-09-15T03:12:15.974Z,13.73
2022-09-15T03:14:44.520Z,11.33
2022-09-15T03:17:12.768Z,13.27
2022-09-15T03:19:42.422Z,12.67
2022-09-15T03:22:11.071Z,13.53
2022-09-15T03:24:42.226Z,13.73
2022-09-15T03:27:10.555Z,10.80
2022-09-15T03:29:38.817Z,10.93
2022-09-15T03:32:07.484Z,14.70
2022-09-15T03:34:36.109Z,11.83
2022-09-15T03:37:05.816Z,12.90
2022-09-15T03:39:34.093Z,13.20
2022-09-15T03:42:02.336Z,13.83
2022-09-15T03:44:30.637Z,12.87
2022-09-15T03:46:59.248Z,10.97
2022-09-15T03:49:27.515Z,12.83
2022-09-15T03:51:55.905Z,12.57
2022-09-15T03:54:25.972Z,10.20
2022-09-15T03:56:54.597Z,12.23
2022-09-15T03:59:22.907Z,14.07
2022-09-15T04:01:51.519Z,14.33
2022-09-15T04:04:19.810Z,10.53
2022-09-15T04:06:48.174Z,15.17
2022-09-15T04:09:16.479Z,12.57
2022-09-15T04:11:46.226Z,10.63
2022-09-15T04:14:14.504Z,10.47
2022-09-15T04:16:42.891Z,10.67
2022-09-15T04:19:11.754Z,9.53
2022-09-15T04:21:40.034Z,10.33
2022-09-15T04:24:08.590Z,8.87
2022-09-15T04:26:38.410Z,7.23
2022-09-15T04:29:14.504Z,8.03
2022-09-15T04:31:43.107Z,11.70
2022-09-15T04:34:11.679Z,6.43
2022-09-15T04:36:40.061Z,9.73
2022-09-15T04:39:08.362Z,9.83
2022-09-15T04:41:36.766Z,9.90
2022-09-15T04:44:05.156Z,8.33
2022-09-15T04:46:34.898Z,11.40
2022-09-15T04:49:03.588Z,9.17
2022-09-15T04:51:31.941Z,9.33
2022-09-15T04:54:00.385Z,12.17
2022-09-15T04:56:29.034Z,9.33
2022-09-15T04:59:03.611Z,11.17
2022-09-15T05:01:36.263Z,10.73
2022-09-15T05:04:05.948Z,14.90
2022-09-15T05:06:35.870Z,14.27
2022-09-15T05:09:10.034Z,13.03
2022-09-15T05:11:39.327Z,14.57
2022-09-15T05:14:09.602Z,15.80
2022-09-15T05:16:40.116Z,15.20
2022-09-15T05:19:09.074Z,14.03
2022-09-15T05:21:37.630Z,16.93
2022-09-15T05:24:06.440Z,15.00
2022-09-15T05:26:34.831Z,15.83
2022-09-15T05:29:03.207Z,16.10
2022-09-15T05:31:33.780Z,13.37
2022-09-15T05:34:06.075Z,15.13
2022-09-15T05:36:35.062Z,17.87
2022-09-15T05:39:03.466Z,15.77
2022-09-15T05:41:31.881Z,15.97
2022-09-15T05:44:00.814Z,17.27
2022-09-15T07:49:30.047Z,17.67
2022-09-15T15:18:56.880Z,7.03
2022-09-15T15:21:55.587Z,7.00
2022-09-15T15:24:47.243Z,6.33
2022-09-15T17:31:14.977Z,7.83
2022-09-15T17:34:12.959Z,6.27
2022-09-15T19:05:21.939Z,7.40
2022-09-15T20:57:33.642Z,8.80
2022-09-15T21:00:07.863Z,8.30
2022-09-15T21:02:37.068Z,9.87
2022-09-15T21:05:06.817Z,11.67
2022-09-15T21:07:56.039Z,8.73
2022-09-15T21:10:28.550Z,9.23
2022-09-15T21:13:33.105Z,8.83
2022-09-15T21:16:06.837Z,7.30
2022-09-15T21:18:40.683Z,6.53
2022-09-15T21:21:12.602Z,8.93
2022-09-15T21:23:46.930Z,8.93
2022-09-15T21:26:18.491Z,6.77
2022-09-15T21:29:10.053Z,9.17
2022-09-15T21:31:39.035Z,7.73
2022-09-15T21:34:08.496Z,7.77
2022-09-15T21:36:38.574Z,5.43
2022-09-15T21:39:07.743Z,6.43
2022-09-15T21:41:36.097Z,8.10
2022-09-15T21:44:04.493Z,6.10
2022-09-15T21:46:35.504Z,6.40
2022-09-15T21:49:03.913Z,6.83
2022-09-15T21:51:32.266Z,6.03
2022-09-15T21:54:01.513Z,7.97
2022-09-15T21:56:30.834Z,5.77
2022-09-15T21:58:59.336Z,7.83
2022-09-15T22:01:30.277Z,6.10
2022-09-15T22:04:01.553Z,8.13
2022-09-15T22:06:31.877Z,5.80
2022-09-15T22:09:00.614Z,8.20
2022-09-15T22:11:29.553Z,8.30
2022-09-15T22:13:58.584Z,7.93
2022-09-15T22:16:27.146Z,6.90
2022-09-15T22:19:02.098Z,11.47
2022-09-15T22:21:32.639Z,9.10
2022-09-15T22:24:01.097Z,8.40
2022-09-15T22:26:36.613Z,5.83
2022-09-15T22:29:06.340Z,6.07
2022-09-15T22:31:35.800Z,9.00
2022-09-15T22:34:06.885Z,12.17
2022-09-15T22:36:38.862Z,10.80
2022-09-15T22:39:08.337Z,7.33
2022-09-15T22:41:38.878Z,8.70
2022-09-15T22:44:09.170Z,10.20
2022-09-15T22:46:37.584Z,7.73
2022-09-15T22:49:09.170Z,9.57
2022-09-15T22:51:37.970Z,7.50
2022-09-15T22:54:07.118Z,10.33
2022-09-15T22:57:13.187Z,6.67
2022-09-15T22:59:46.839Z,6.93
2022-09-15T23:02:15.931Z,8.77
2022-09-15T23:04:46.100Z,7.03
2022-09-15T23:07:16.671Z,8.17
2022-09-15T23:09:45.749Z,8.80
2022-09-15T23:12:15.481Z,8.23
2022-09-15T23:14:44.839Z,9.23
2022-09-15T23:17:14.011Z,7.80
2022-09-15T23:19:59.315Z,8.63
2022-09-15T23:22:28.106Z,8.43
2022-09-15T23:24:57.600Z,10.77
2022-09-15T23:27:26.472Z,7.37
2022-09-15T23:29:55.501Z,7.63
2022-09-15T23:32:24.429Z,7.27
2022-09-15T23:34:53.527Z,8.83
2022-09-15T23:37:23.666Z,7.93
2022-09-15T23:39:52.417Z,7.40
2022-09-15T23:42:20.747Z,10.90
2022-09-15T23:44:49.026Z,10.47
2022-09-15T23:47:17.308Z,8.20
2022-09-15T23:49:45.580Z,10.27
2022-09-15T23:52:13.827Z,7.70
2022-09-15T23:54:44.005Z,7.30
2022-09-15T23:57:12.343Z,8.30
2022-09-15T23:59:40.637Z,8.13
